メインページ
METAR-TAF:

METAR-TAF

空港 :

Naval Air Station Whidbey Island (Ault Field)

オークハーバー, ワシントン, アメリカ合衆国

緯度: 48-20-57N, 経度: 122-39-02W, 海抜: 14m

現時点の気象観測

当レポートは10分前の07:56(UTC)に作成
東/南東の風 8kt
気温 2°C
湿度 87%
気圧 1021 hPa
視程: 12.9km
高度22000ftの雲はほとんどない
高度25000ftの雲は散在している
散在霧

METAR: KNUW 220756Z 12008KT 8SM BCFG FEW220 SCT250 02/00 A3016 RMK AO2 SLP211 T00170000 400941011 $

時間: 00:06 (08:06 UTC)

予報

予報は22日の 07時(UTC)から 23日の 07時(UTC)まで有効
変向風 6kt
視程: 9000m
高度22000ftの雲はほとんどない
22日の 0900時(UTC)から
変向風 6kt
視程10km以上
高度800ftの雲はほとんどない
高度1500ftの雲は散在している
高度22000ftの雲は散在している
22日の 11時(UTC)から 22日の 17時(UTC)まで一時的に
視程: 4800m
高度800ftの曇り
靄, 散在霧
22日の 2200時(UTC)から
変向風 6kt
視程10km以上
高度4000ftの雲はほとんどない
高度6000ftの千切れ雲あり
高度24000ftの曇り
23日の 01時(UTC)から 23日の 07時(UTC)まで一時的に
南東の風 8kt
高度3500ftの千切れ雲あり
高度5000ftの曇り

TAF: KNUW 2207/2307 VRB06KT 9000 BR FEW220 531709 QNH3006INS FM220900 VRB06KT 9999 FEW008 SCT015 SCT220 551709 QNH3010INS TEMPO 2211/2217 4800 BR BCFG OVC008 FM222200 VRB06KT 9999 FEW040 BKN060 OVC240 650609 651509 552509 QNH3024INS TEMPO 2301/2307 13008KT BKN035 OVC050 T00/2210Z T09/2223Z FS30148

4,000以上の空港の気象観測と天気予報(METAR報とTAF報)

利用可能な観測所は地図上に黄色い丸と赤い丸で示す。

丸の上にカーソルを重ねると観測所名を参照できる。

次にクリックすると気象観測と天気予報を参照できる。

マップの切り替え:黒色「×」印の緑ボタンをクリックして拡大、「-」印の緑ボタンをクリックして縮小、緑色の三角印をクリックして隣りの地図に切り替え


METAR-TAF: